createdAt,value
2023-01-04T00:01:23.880Z,19.88
2023-01-04T00:03:51.754Z,20.30
2023-01-04T00:06:19.797Z,18.75
2023-01-04T00:08:47.321Z,18.02
2023-01-04T00:13:49.091Z,18.83
2023-01-04T00:16:23.270Z,17.95
2023-01-04T00:18:53.017Z,20.20
2023-01-04T00:21:27.562Z,19.42
2023-01-04T00:23:58.478Z,24.48
2023-01-04T00:26:32.885Z,25.70
2023-01-04T00:29:05.683Z,25.05
2023-01-04T00:31:35.987Z,23.83
2023-01-04T00:34:05.717Z,32.45
2023-01-04T00:36:35.203Z,35.58
2023-01-04T00:39:10.557Z,34.08
2023-01-04T00:42:00.314Z,39.20
2023-01-04T00:44:29.194Z,45.92
2023-01-04T00:46:56.930Z,41.55
2023-01-04T00:49:24.728Z,33.78
2023-01-04T00:51:52.140Z,46.47
2023-01-04T00:56:47.827Z,37.90
2023-01-04T00:59:19.635Z,51.88
2023-01-04T01:01:48.445Z,95.75
2023-01-04T01:04:19.265Z,68.53
2023-01-04T01:06:47.182Z,71.68
2023-01-04T01:09:15.344Z,35.50
2023-01-04T01:11:43.093Z,23.80
2023-01-04T01:14:19.705Z,27.25
2023-01-04T01:16:56.990Z,28.88
2023-01-04T01:19:28.619Z,28.40
2023-01-04T01:21:58.555Z,31.75
2023-01-04T01:24:27.229Z,32.17
2023-01-04T01:26:55.794Z,33.08
2023-01-04T01:29:23.482Z,27.42
2023-01-04T01:31:50.980Z,26.63
2023-01-04T01:36:45.312Z,30.75
2023-01-04T01:39:12.716Z,28.63
2023-01-04T01:41:40.005Z,30.98
2023-01-04T01:44:42.643Z,26.65
2023-01-04T01:47:26.992Z,29.27
2023-01-04T01:49:55.335Z,26.42
2023-01-04T01:52:30.739Z,22.70
2023-01-04T01:55:03.882Z,22.23
2023-01-04T01:57:36.480Z,18.50
2023-01-04T02:00:13.577Z,17.60
2023-01-04T02:03:16.232Z,18.98
2023-01-04T02:05:47.287Z,20.08
2023-01-04T02:08:16.685Z,18.23
2023-01-04T02:10:43.840Z,23.25
2023-01-04T02:13:16.975Z,21.15
2023-01-04T02:15:57.031Z,13.18
2023-01-04T02:19:03.667Z,16.60
2023-01-04T02:22:09.897Z,13.27
2023-01-04T02:25:07.559Z,14.60
2023-01-04T02:27:53.823Z,13.82
2023-01-04T02:30:45.588Z,16.55
2023-01-04T02:33:35.386Z,13.85
2023-01-04T02:36:30.230Z,17.20
2023-01-04T02:39:28.376Z,13.25
2023-01-04T02:42:06.594Z,12.10
2023-01-04T02:44:53.692Z,12.80
2023-01-04T02:47:55.781Z,12.95
2023-01-04T02:50:33.193Z,13.85
2023-01-04T02:53:33.858Z,14.30
2023-01-04T02:56:35.781Z,11.65
2023-01-04T02:59:21.565Z,12.77
2023-01-04T03:02:34.140Z,12.50
2023-01-04T03:05:31.952Z,10.45
2023-01-04T03:09:02.092Z,12.07
2023-01-04T03:12:07.574Z,14.73
2023-01-04T03:14:45.517Z,12.90
2023-01-04T03:17:19.901Z,12.18
2023-01-04T03:19:56.836Z,10.45
2023-01-04T03:22:56.543Z,14.77
2023-01-04T03:25:54.470Z,19.70
2023-01-04T03:28:46.871Z,14.00
2023-01-04T03:31:48.362Z,12.45
2023-01-04T03:34:35.127Z,11.68
2023-01-04T03:40:17.327Z,10.82
2023-01-04T03:43:35.896Z,11.98
2023-01-04T03:49:11.035Z,12.38
2023-01-04T03:51:39.523Z,12.75
2023-01-04T03:54:26.269Z,12.93
2023-01-04T03:59:23.850Z,12.68
2023-01-04T04:01:51.702Z,12.93
2023-01-04T04:04:37.732Z,12.60
2023-01-04T04:07:24.027Z,9.80
2023-01-04T04:09:51.335Z,12.90
2023-01-04T04:12:18.633Z,11.68
2023-01-04T04:14:45.768Z,12.07
2023-01-04T04:17:12.931Z,11.57
2023-01-04T04:19:40.090Z,11.23
2023-01-04T04:22:07.224Z,11.52
2023-01-04T04:24:34.381Z,12.27
2023-01-04T04:27:01.656Z,14.07
2023-01-04T04:29:28.807Z,9.30
2023-01-04T04:31:56.098Z,9.70
2023-01-04T04:34:23.314Z,11.93
2023-01-04T04:36:50.496Z,11.60
2023-01-04T04:39:18.373Z,9.63
2023-01-04T04:41:45.690Z,10.48
2023-01-04T04:44:19.333Z,9.95
2023-01-04T04:46:48.930Z,11.23
2023-01-04T04:49:17.711Z,11.30
2023-01-04T04:51:46.883Z,11.45
2023-01-04T04:54:20.941Z,10.48
2023-01-04T04:56:49.910Z,9.90
2023-01-04T04:59:18.101Z,10.88
2023-01-04T05:01:45.600Z,9.65
2023-01-04T05:06:47.420Z,11.15
2023-01-04T05:09:15.793Z,8.43
2023-01-04T05:12:01.912Z,10.73
2023-01-04T05:14:29.410Z,7.85
2023-01-04T05:16:56.711Z,9.57
2023-01-04T05:19:23.918Z,11.43
2023-01-04T05:21:51.076Z,12.35
2023-01-04T05:24:18.374Z,11.90
2023-01-04T05:26:45.564Z,14.77
2023-01-04T05:29:33.769Z,18.30
2023-01-04T05:32:01.071Z,13.15
2023-01-04T05:34:28.358Z,12.68
2023-01-04T05:36:55.545Z,13.73
2023-01-04T05:39:22.814Z,11.18
2023-01-04T05:42:08.894Z,11.23
2023-01-04T05:44:36.187Z,9.48
2023-01-04T05:47:03.355Z,10.00
2023-01-04T05:49:30.504Z,11.65
2023-01-04T05:51:57.704Z,9.52
2023-01-04T05:54:24.846Z,12.13
2023-01-04T05:56:52.048Z,11.43
2023-01-04T05:59:19.182Z,13.07
2023-01-04T06:01:46.458Z,9.95
2023-01-04T06:04:13.888Z,9.77
2023-01-04T06:06:41.156Z,8.25
2023-01-04T06:09:08.386Z,8.70
2023-01-04T06:11:35.524Z,11.63
2023-01-04T06:14:02.664Z,8.63
2023-01-04T06:16:30.412Z,8.30
2023-01-04T06:18:57.603Z,8.68
2023-01-04T06:21:25.648Z,8.02
2023-01-04T06:23:53.642Z,9.75
2023-01-04T06:26:21.601Z,10.35
2023-01-04T06:28:49.066Z,6.88
2023-01-04T06:31:16.311Z,9.50
2023-01-04T06:33:43.671Z,7.93
2023-01-04T06:36:20.045Z,8.30
2023-01-04T06:38:48.304Z,10.20
2023-01-04T06:41:15.854Z,7.40
2023-01-04T06:43:43.150Z,7.50
2023-01-04T06:46:10.481Z,10.82
2023-01-04T06:48:37.670Z,12.15
2023-01-04T06:51:05.125Z,8.85
2023-01-04T06:53:32.370Z,8.70
2023-01-04T06:55:59.572Z,9.50
2023-01-04T06:58:27.661Z,10.27
2023-01-04T07:00:56.454Z,10.32
2023-01-04T07:03:23.812Z,10.20
2023-01-04T07:05:51.245Z,10.02
2023-01-04T07:08:19.597Z,8.30
2023-01-04T07:10:47.251Z,10.13
2023-01-04T07:13:14.613Z,12.38
2023-01-04T07:15:42.436Z,10.75
2023-01-04T07:18:11.093Z,14.50
2023-01-04T07:20:40.025Z,17.13
2023-01-04T07:23:09.458Z,11.13
2023-01-04T07:25:36.881Z,12.68
2023-01-04T07:28:04.480Z,14.75
2023-01-04T07:30:32.215Z,12.27
2023-01-04T07:32:59.827Z,12.48
2023-01-04T07:37:58.743Z,13.88
2023-01-04T07:40:28.147Z,16.00
2023-01-04T07:42:59.814Z,17.20
2023-01-04T07:45:27.759Z,15.20
2023-01-04T07:47:55.053Z,19.63
2023-01-04T07:50:22.299Z,20.88
2023-01-04T07:52:49.500Z,28.60
2023-01-04T07:55:16.850Z,28.13
2023-01-04T07:57:44.050Z,32.08
2023-01-04T08:00:12.395Z,32.28
2023-01-04T08:02:39.668Z,28.10
2023-01-04T08:05:07.278Z,23.08
2023-01-04T08:07:34.467Z,22.80
2023-01-04T08:10:01.900Z,24.17
2023-01-04T08:12:30.023Z,22.63
2023-01-04T08:14:57.444Z,21.83
2023-01-04T08:19:52.767Z,33.67
2023-01-04T08:22:19.986Z,28.17
2023-01-04T08:24:47.158Z,31.05
2023-01-04T08:27:14.270Z,28.27
2023-01-04T08:29:41.444Z,29.40
2023-01-04T08:32:08.555Z,27.85
2023-01-04T08:34:35.740Z,24.75
2023-01-04T08:37:02.883Z,24.33
2023-01-04T08:39:34.169Z,24.52
2023-01-04T08:42:12.616Z,28.85
2023-01-04T08:44:46.257Z,26.33
2023-01-04T08:47:13.479Z,27.58
2023-01-04T08:49:40.695Z,28.67
2023-01-04T08:52:09.389Z,28.73
2023-01-04T08:54:37.118Z,22.85
2023-01-04T08:57:04.440Z,29.17
2023-01-04T08:59:31.578Z,25.48
2023-01-04T09:02:05.189Z,28.92
2023-01-04T09:04:32.785Z,30.10
2023-01-04T09:06:59.986Z,26.90
2023-01-04T09:09:27.355Z,26.38
2023-01-04T09:14:21.556Z,23.40
2023-01-04T09:16:48.748Z,31.73
2023-01-04T09:19:21.685Z,29.48
2023-01-04T09:21:50.431Z,27.75
2023-01-04T09:24:17.715Z,32.13
2023-01-04T09:29:12.177Z,24.27
2023-01-04T09:31:39.396Z,21.33
2023-01-04T09:34:16.612Z,19.95
2023-01-04T09:36:47.182Z,16.80
2023-01-04T09:39:24.440Z,17.88
2023-01-04T09:42:04.174Z,14.85
2023-01-04T09:45:21.191Z,12.88
2023-01-04T09:47:50.761Z,14.30
2023-01-04T09:50:51.163Z,13.18
2023-01-04T09:53:41.577Z,10.90
2023-01-04T09:56:28.515Z,12.20
2023-01-04T09:58:58.311Z,13.90
2023-01-04T10:01:44.181Z,14.80
2023-01-04T10:04:40.458Z,10.98
2023-01-04T10:07:28.531Z,8.85
2023-01-04T10:09:57.131Z,11.82
2023-01-04T10:13:10.040Z,10.60
2023-01-04T10:15:51.713Z,9.68
2023-01-04T10:21:38.480Z,7.40
2023-01-04T10:24:29.951Z,8.85
2023-01-04T10:27:09.324Z,13.05
2023-01-04T10:29:43.145Z,11.88
2023-01-04T10:32:31.768Z,10.00
2023-01-04T10:34:59.061Z,10.18
2023-01-04T10:37:35.587Z,12.45
2023-01-04T10:40:03.332Z,10.57
2023-01-04T10:43:02.190Z,15.55
2023-01-04T10:48:50.558Z,10.98
2023-01-04T10:51:31.841Z,13.43
2023-01-04T10:54:22.874Z,15.98
2023-01-04T10:57:07.088Z,15.15
2023-01-04T11:00:15.669Z,17.88
2023-01-04T11:03:02.213Z,19.95
2023-01-04T11:06:10.490Z,18.20
2023-01-04T11:08:54.961Z,23.90
2023-01-04T11:11:42.615Z,22.55
2023-01-04T11:14:10.901Z,29.05
2023-01-04T11:16:46.572Z,28.65
2023-01-04T11:19:14.987Z,31.52
2023-01-04T11:22:41.384Z,27.20
2023-01-04T11:25:50.340Z,28.58
2023-01-04T11:28:39.172Z,28.38
2023-01-04T11:31:45.638Z,23.98
2023-01-04T11:34:20.827Z,26.58
2023-01-04T11:36:48.606Z,28.25
2023-01-04T11:39:28.872Z,25.13
2023-01-04T11:44:38.773Z,19.23
2023-01-04T11:47:21.160Z,19.80
2023-01-04T11:49:48.982Z,19.70
2023-01-04T11:52:36.582Z,17.55
2023-01-04T11:55:30.532Z,17.15
2023-01-04T11:58:17.417Z,17.73
2023-01-04T12:00:57.758Z,13.65
2023-01-04T12:03:34.594Z,13.65
2023-01-04T12:06:11.318Z,12.98
2023-01-04T12:08:38.613Z,14.38
2023-01-04T12:11:07.023Z,14.18
2023-01-04T12:13:35.491Z,14.68
2023-01-04T12:16:11.407Z,14.73
2023-01-04T12:18:46.758Z,11.35
2023-01-04T12:21:35.369Z,16.13
2023-01-04T12:24:07.660Z,13.82
2023-01-04T12:26:42.801Z,13.63
2023-01-04T12:29:25.377Z,13.45
2023-01-04T12:32:13.959Z,11.10
2023-01-04T12:36:22.355Z,11.43
2023-01-04T12:37:45.959Z,12.85
2023-01-04T12:40:47.271Z,11.70
2023-01-04T12:43:16.953Z,16.30
2023-01-04T12:45:46.572Z,15.30
2023-01-04T12:48:51.837Z,14.73
2023-01-04T12:51:32.281Z,15.75
2023-01-04T12:54:22.364Z,13.68
2023-01-04T12:57:24.363Z,15.48
2023-01-04T13:00:07.316Z,16.33
2023-01-04T13:02:45.269Z,20.10
2023-01-04T13:08:17.209Z,16.60
2023-01-04T13:10:55.527Z,17.42
2023-01-04T13:13:57.406Z,18.88
2023-01-04T13:16:34.789Z,17.20
2023-01-04T13:19:21.434Z,14.63
2023-01-04T13:21:53.768Z,14.25
2023-01-04T13:24:33.152Z,14.50
2023-01-04T13:27:46.258Z,16.65
2023-01-04T13:31:16.575Z,13.85
2023-01-04T13:33:47.540Z,12.25
2023-01-04T13:36:15.252Z,13.20
2023-01-04T13:38:42.640Z,13.52
2023-01-04T13:41:30.850Z,14.95
2023-01-04T13:44:32.993Z,12.85
2023-01-04T13:47:13.379Z,13.55
2023-01-04T13:49:44.822Z,14.55
2023-01-04T13:52:53.066Z,15.80
2023-01-04T13:55:32.085Z,15.00
2023-01-04T13:58:17.793Z,14.60
2023-01-04T14:01:17.160Z,12.35
2023-01-04T14:03:59.252Z,12.82
2023-01-04T14:06:40.238Z,11.50
2023-01-04T14:09:11.253Z,14.32
2023-01-04T14:12:06.329Z,15.82
2023-01-04T14:14:59.286Z,13.90
2023-01-04T14:17:35.677Z,17.08
2023-01-04T14:20:30.041Z,16.15
2023-01-04T14:23:00.256Z,12.95
2023-01-04T14:25:45.200Z,13.40
2023-01-04T14:28:27.480Z,17.65
2023-01-04T14:31:19.502Z,15.25
2023-01-04T14:33:50.471Z,18.42
2023-01-04T14:36:31.284Z,16.70
2023-01-04T14:39:18.709Z,22.65
2023-01-04T14:41:59.827Z,23.77
2023-01-04T14:44:31.196Z,23.80
2023-01-04T14:47:04.163Z,29.00
2023-01-04T14:49:31.838Z,24.40
2023-01-04T14:52:02.939Z,21.08
2023-01-04T14:54:32.015Z,25.27
2023-01-04T14:56:59.847Z,26.95
2023-01-04T14:59:27.228Z,21.67
2023-01-04T15:01:57.333Z,21.27
2023-01-04T15:04:25.636Z,21.63
2023-01-04T15:06:58.886Z,24.50
2023-01-04T15:09:28.082Z,22.88
2023-01-04T15:11:55.663Z,20.67
2023-01-04T15:14:23.878Z,24.33
2023-01-04T15:16:51.243Z,22.75
2023-01-04T15:19:18.448Z,19.70
2023-01-04T15:21:45.830Z,19.77
2023-01-04T15:26:54.047Z,20.40
2023-01-04T15:29:22.108Z,23.27
2023-01-04T15:34:31.094Z,19.67
2023-01-04T15:36:58.483Z,19.55
2023-01-04T15:39:25.959Z,19.55
2023-01-04T15:42:11.745Z,21.05
2023-01-04T15:44:39.029Z,19.80
2023-01-04T15:47:06.474Z,20.25
2023-01-04T15:49:33.839Z,23.48
2023-01-04T15:52:01.317Z,19.33
2023-01-04T15:54:29.711Z,19.23
2023-01-04T15:56:57.085Z,19.02
2023-01-04T15:59:24.857Z,20.15
2023-01-04T16:01:52.446Z,19.80
2023-01-04T16:04:19.841Z,18.67
2023-01-04T16:06:47.045Z,19.30
2023-01-04T16:12:02.651Z,20.42
2023-01-04T16:14:30.301Z,16.50
2023-01-04T16:16:57.953Z,17.90
2023-01-04T16:23:25.373Z,25.60
2023-01-04T16:28:31.423Z,26.60
2023-01-04T16:30:58.843Z,23.88
2023-01-04T16:33:45.056Z,25.73
2023-01-04T16:36:12.362Z,27.45
2023-01-04T16:41:16.755Z,33.22
2023-01-04T16:43:46.884Z,27.40
2023-01-04T16:46:23.373Z,34.20
2023-01-04T16:48:59.103Z,37.97
2023-01-04T16:51:28.974Z,40.33
2023-01-04T16:53:57.116Z,35.67
2023-01-04T16:56:25.498Z,40.92
2023-01-04T16:58:53.061Z,37.22
2023-01-04T17:01:25.950Z,35.03
2023-01-04T17:04:00.779Z,46.08
2023-01-04T17:06:32.209Z,41.60
2023-01-04T17:09:03.463Z,39.80
2023-01-04T17:12:19.284Z,34.63
2023-01-04T17:14:29.904Z,33.30
2023-01-04T17:16:58.220Z,29.45
2023-01-04T17:19:25.837Z,51.42
2023-01-04T17:21:53.663Z,32.67
2023-01-04T17:24:21.015Z,27.15
2023-01-04T17:26:48.425Z,27.13
2023-01-04T17:31:45.952Z,22.50
2023-01-04T17:34:22.610Z,20.67
2023-01-04T17:36:50.808Z,18.63
2023-01-04T17:39:20.865Z,26.70
2023-01-04T17:41:48.170Z,23.05
2023-01-04T17:44:15.589Z,25.00
2023-01-04T17:49:31.739Z,21.23
2023-01-04T17:52:00.221Z,20.48
2023-01-04T17:54:27.547Z,21.92
2023-01-04T17:56:54.944Z,21.85
2023-01-04T17:59:22.383Z,19.65
2023-01-04T18:04:16.880Z,24.10
2023-01-04T18:06:45.497Z,24.00
2023-01-04T18:09:15.568Z,26.13
2023-01-04T18:11:45.735Z,17.89
2023-01-04T18:14:14.602Z,15.77
2023-01-04T18:16:58.271Z,17.60
2023-01-04T18:19:31.005Z,16.42
2023-01-04T18:21:59.031Z,16.27
2023-01-04T18:24:42.146Z,22.05
2023-01-04T18:27:22.628Z,16.45
2023-01-04T18:29:53.344Z,21.73
2023-01-04T18:32:22.229Z,20.50
2023-01-04T18:34:49.554Z,22.20
2023-01-04T18:37:19.104Z,20.38
2023-01-04T18:39:48.269Z,24.73
2023-01-04T18:42:15.949Z,21.30
2023-01-04T18:44:48.397Z,23.25
2023-01-04T18:47:20.286Z,22.90
2023-01-04T18:49:48.998Z,24.08
2023-01-04T18:52:18.325Z,24.00
2023-01-04T18:54:48.032Z,20.88
2023-01-04T18:57:17.884Z,18.33
2023-01-04T18:59:50.014Z,18.30
2023-01-04T19:02:20.965Z,19.58
2023-01-04T19:04:48.837Z,21.80
2023-01-04T19:07:16.054Z,23.40
2023-01-04T19:09:43.519Z,23.27
2023-01-04T19:14:38.406Z,23.60
2023-01-04T19:17:05.687Z,23.00
2023-01-04T19:19:34.028Z,25.30
2023-01-04T19:22:14.149Z,25.52
2023-01-04T19:24:42.433Z,27.75
2023-01-04T19:27:12.207Z,23.88
2023-01-04T19:29:39.468Z,30.60
2023-01-04T19:32:06.981Z,25.45
2023-01-04T19:37:01.332Z,22.20
2023-01-04T19:39:28.586Z,26.85
2023-01-04T19:41:56.401Z,24.73
2023-01-04T19:44:23.758Z,31.58
2023-01-04T19:46:50.982Z,25.60
2023-01-04T19:49:18.698Z,25.35
2023-01-04T19:51:47.387Z,27.13
2023-01-04T19:54:19.858Z,32.05
2023-01-04T19:56:51.945Z,25.25
2023-01-04T19:59:19.361Z,25.60
2023-01-04T20:01:46.826Z,25.80
2023-01-04T20:04:15.299Z,30.30
2023-01-04T20:06:42.572Z,25.83
2023-01-04T20:09:10.462Z,31.85
2023-01-04T20:11:37.712Z,21.65
2023-01-04T20:14:05.092Z,26.73
2023-01-04T20:16:32.456Z,29.73
2023-01-04T20:18:59.755Z,26.40
2023-01-04T20:21:27.129Z,23.85
2023-01-04T20:23:54.410Z,26.17
2023-01-04T20:26:25.443Z,30.67
2023-01-04T20:28:52.882Z,22.48
2023-01-04T20:31:21.030Z,23.20
2023-01-04T20:33:48.902Z,21.02
2023-01-04T20:36:21.202Z,21.48
2023-01-04T20:38:50.459Z,20.40
2023-01-04T20:41:22.771Z,21.00
2023-01-04T20:43:51.300Z,23.25
2023-01-04T20:46:24.698Z,22.77
2023-01-04T20:48:55.228Z,22.95
2023-01-04T20:51:26.480Z,22.50
2023-01-04T20:53:55.213Z,25.23
2023-01-04T20:56:26.860Z,22.02
2023-01-04T20:58:55.211Z,22.05
2023-01-04T21:01:26.726Z,19.65
2023-01-04T21:03:54.321Z,18.30
2023-01-04T21:06:25.563Z,24.00
2023-01-04T21:09:01.958Z,18.60
2023-01-04T21:11:30.003Z,21.35
2023-01-04T21:13:57.820Z,18.70
2023-01-04T21:16:25.407Z,18.00
2023-01-04T21:21:20.949Z,20.27
2023-01-04T21:23:51.802Z,41.25
2023-01-04T21:26:26.518Z,25.85
2023-01-04T21:28:54.367Z,22.77
2023-01-04T21:31:24.871Z,21.77
2023-01-04T21:33:54.806Z,21.88
2023-01-04T21:36:27.279Z,27.38
2023-01-04T21:38:58.830Z,17.33
2023-01-04T21:41:27.133Z,19.45
2023-01-04T21:43:57.950Z,23.10
2023-01-04T21:46:27.416Z,24.15
2023-01-04T21:49:00.003Z,18.85
2023-01-04T21:51:30.856Z,24.70
2023-01-04T21:53:59.390Z,22.75
2023-01-04T21:56:26.736Z,17.98
2023-01-04T21:58:54.446Z,28.83
2023-01-04T22:01:30.953Z,28.42
2023-01-04T22:04:02.613Z,26.83
2023-01-04T22:06:30.609Z,49.97
2023-01-04T22:08:58.984Z,42.22
2023-01-04T22:11:26.242Z,99.68
2023-01-04T22:13:53.693Z,51.45
2023-01-04T22:16:21.129Z,22.42
2023-01-04T22:18:49.686Z,24.25
2023-01-04T22:21:22.379Z,25.92
2023-01-04T22:23:51.241Z,23.38
2023-01-04T22:26:18.540Z,16.02
2023-01-04T22:28:46.739Z,13.93
2023-01-04T22:31:15.704Z,17.88
2023-01-04T22:33:43.799Z,15.20
2023-01-04T22:36:22.209Z,14.20
2023-01-04T22:38:52.610Z,16.63
2023-01-04T22:41:23.933Z,15.40
2023-01-04T22:44:01.352Z,15.68
2023-01-04T22:46:30.555Z,14.60
2023-01-04T22:48:59.849Z,13.77
2023-01-04T22:51:29.746Z,20.75
2023-01-04T22:54:01.457Z,22.13
2023-01-04T22:56:29.902Z,15.77
2023-01-04T22:58:58.971Z,19.13
2023-01-04T23:01:32.448Z,20.02
2023-01-04T23:04:01.868Z,14.57
2023-01-04T23:06:31.616Z,14.52
2023-01-04T23:09:03.588Z,22.98
2023-01-04T23:11:36.515Z,17.73
2023-01-04T23:14:16.273Z,15.77
2023-01-04T23:16:45.286Z,17.88
2023-01-04T23:19:13.940Z,15.77
2023-01-04T23:21:42.165Z,17.58
2023-01-04T23:24:15.797Z,19.00
2023-01-04T23:26:44.745Z,22.83
2023-01-04T23:29:12.232Z,18.98
2023-01-04T23:31:40.037Z,22.50
2023-01-04T23:34:13.092Z,28.92
2023-01-04T23:36:42.503Z,20.85
2023-01-04T23:39:14.865Z,21.85
2023-01-04T23:41:46.276Z,23.58
2023-01-04T23:44:25.484Z,18.95
2023-01-04T23:46:57.782Z,22.92
2023-01-04T23:49:28.359Z,21.67
2023-01-04T23:51:56.109Z,20.13
2023-01-04T23:54:24.139Z,23.05
2023-01-04T23:56:52.747Z,19.45
2023-01-04T23:59:21.837Z,24.40
